createdAt,value
2018-04-30T00:00:38.388Z,64.21
2018-04-30T00:03:06.011Z,64.17
2018-04-30T00:05:33.642Z,64.15
2018-04-30T00:08:01.251Z,64.22
2018-04-30T00:10:28.887Z,64.21
2018-04-30T00:12:56.566Z,64.27
2018-04-30T00:15:24.196Z,64.22
2018-04-30T00:17:51.898Z,64.41
2018-04-30T00:20:19.506Z,64.55
2018-04-30T00:22:47.147Z,64.62
2018-04-30T00:25:14.754Z,64.70
2018-04-30T00:27:42.382Z,64.71
2018-04-30T00:30:10.002Z,64.69
2018-04-30T00:32:37.642Z,64.85
2018-04-30T00:35:05.258Z,64.87
2018-04-30T00:37:32.894Z,64.90
2018-04-30T00:40:00.507Z,65.03
2018-04-30T00:42:28.134Z,65.04
2018-04-30T00:44:55.751Z,65.08
2018-04-30T00:47:23.386Z,65.18
2018-04-30T00:49:51.094Z,65.39
2018-04-30T00:52:18.732Z,65.43
2018-04-30T00:54:59.533Z,65.57
2018-04-30T00:57:27.173Z,65.56
2018-04-30T00:59:54.787Z,65.74
2018-04-30T01:02:22.523Z,65.91
2018-04-30T01:04:50.183Z,66.07
2018-04-30T01:07:17.824Z,66.31
2018-04-30T01:09:45.442Z,66.42
2018-04-30T01:12:21.262Z,66.44
2018-04-30T01:14:48.878Z,66.54
2018-04-30T01:17:16.514Z,66.63
2018-04-30T01:19:44.126Z,66.73
2018-04-30T01:22:11.779Z,66.83
2018-04-30T01:24:39.476Z,66.96
2018-04-30T01:27:07.134Z,67.01
2018-04-30T01:29:34.755Z,67.05
2018-04-30T01:32:02.463Z,67.09
2018-04-30T01:34:30.080Z,67.09
2018-04-30T01:36:57.714Z,67.19
2018-04-30T01:39:25.342Z,67.24
2018-04-30T01:41:53.111Z,67.33
2018-04-30T01:44:20.726Z,67.49
2018-04-30T01:46:48.338Z,67.58
2018-04-30T01:49:15.981Z,67.68
2018-04-30T01:51:43.598Z,67.67
2018-04-30T01:54:11.235Z,67.85
2018-04-30T01:56:38.887Z,67.94
2018-04-30T01:59:06.542Z,68.00
2018-04-30T02:01:34.159Z,67.97
2018-04-30T02:04:01.808Z,68.00
2018-04-30T02:06:29.426Z,68.02
2018-04-30T02:08:57.104Z,68.03
2018-04-30T02:11:24.722Z,68.05
2018-04-30T02:13:52.430Z,68.13
2018-04-30T02:16:20.046Z,68.13
2018-04-30T02:18:47.742Z,68.12
2018-04-30T02:21:15.363Z,68.18
2018-04-30T02:23:43.008Z,68.34
2018-04-30T02:26:10.727Z,68.33
2018-04-30T02:28:38.907Z,68.30
2018-04-30T02:31:06.523Z,68.30
2018-04-30T02:33:34.199Z,68.40
2018-04-30T02:36:01.895Z,68.49
2018-04-30T02:38:29.550Z,68.51
2018-04-30T02:40:57.222Z,68.46
2018-04-30T02:43:24.863Z,68.50
2018-04-30T02:45:52.483Z,68.51
2018-04-30T02:48:20.212Z,68.50
2018-04-30T02:50:47.823Z,68.65
2018-04-30T02:53:15.467Z,68.64
2018-04-30T02:55:43.078Z,68.73
2018-04-30T02:58:10.738Z,68.80
2018-04-30T03:00:38.364Z,68.88
2018-04-30T03:03:05.974Z,68.95
2018-04-30T03:05:33.613Z,68.98
2018-04-30T03:08:01.224Z,68.97
2018-04-30T03:10:28.863Z,68.97
2018-04-30T03:12:56.484Z,69.01
2018-04-30T03:15:24.114Z,69.07
2018-04-30T03:17:51.727Z,69.09
2018-04-30T03:20:19.363Z,69.14
2018-04-30T03:22:47.080Z,69.30
2018-04-30T03:25:14.739Z,69.31
2018-04-30T03:27:42.354Z,69.39
2018-04-30T03:30:09.991Z,69.47
2018-04-30T03:32:37.609Z,69.52
2018-04-30T03:35:05.291Z,69.50
2018-04-30T03:37:32.902Z,69.54
2018-04-30T03:40:00.542Z,69.47
2018-04-30T03:42:28.160Z,69.41
2018-04-30T03:44:55.834Z,69.48
2018-04-30T03:47:23.455Z,69.49
2018-04-30T03:49:51.149Z,69.45
2018-04-30T03:52:18.766Z,69.39
2018-04-30T03:54:46.408Z,69.30
2018-04-30T03:57:14.138Z,69.28
2018-04-30T03:59:41.801Z,69.15
2018-04-30T04:02:21.174Z,69.10
2018-04-30T04:05:00.463Z,68.91
2018-04-30T04:07:28.143Z,68.74
2018-04-30T04:09:55.778Z,68.66
2018-04-30T04:12:23.387Z,68.56
2018-04-30T04:14:51.135Z,68.52
2018-04-30T04:17:18.746Z,68.29
2018-04-30T04:19:46.457Z,68.04
2018-04-30T04:22:14.122Z,67.83
2018-04-30T04:24:41.782Z,67.72
2018-04-30T04:27:09.452Z,67.60
2018-04-30T04:29:37.067Z,67.56
2018-04-30T04:32:05.590Z,67.41
2018-04-30T04:34:33.265Z,67.34
2018-04-30T04:37:00.942Z,67.23
2018-04-30T04:39:28.574Z,67.04
2018-04-30T04:41:56.239Z,66.95
2018-04-30T04:44:23.902Z,66.80
2018-04-30T04:46:51.539Z,66.59
2018-04-30T04:49:19.157Z,66.44
2018-04-30T04:51:46.891Z,66.34
2018-04-30T04:54:14.502Z,66.13
2018-04-30T04:56:42.138Z,66.00
2018-04-30T04:59:09.763Z,66.04
2018-04-30T05:01:37.429Z,65.83
2018-04-30T05:04:05.040Z,65.91
2018-04-30T05:06:32.675Z,65.79
2018-04-30T05:09:00.321Z,65.78
2018-04-30T05:11:27.981Z,65.47
2018-04-30T05:13:55.743Z,65.25
2018-04-30T05:16:23.383Z,64.95
2018-04-30T05:18:51.171Z,64.67
2018-04-30T05:21:18.840Z,64.57
2018-04-30T05:23:46.455Z,64.29
2018-04-30T05:26:14.111Z,64.00
2018-04-30T05:28:41.732Z,63.76
2018-04-30T05:31:09.390Z,63.58
2018-04-30T05:33:37.043Z,63.37
2018-04-30T05:36:04.706Z,63.37
2018-04-30T05:38:32.370Z,62.79
2018-04-30T05:40:59.984Z,62.68
2018-04-30T05:43:27.610Z,62.25
2018-04-30T05:45:55.218Z,61.69
2018-04-30T05:48:22.932Z,61.30
2018-04-30T05:50:50.587Z,61.21
2018-04-30T05:53:18.223Z,60.84
2018-04-30T05:55:45.844Z,60.66
2018-04-30T05:58:13.571Z,60.54
2018-04-30T06:00:41.231Z,60.05
2018-04-30T06:03:08.862Z,59.67
2018-04-30T06:05:36.474Z,59.62
2018-04-30T06:08:04.106Z,59.33
2018-04-30T06:10:31.715Z,59.15
2018-04-30T06:12:59.406Z,59.33
2018-04-30T06:15:27.009Z,59.08
2018-04-30T06:17:54.634Z,59.02
2018-04-30T06:20:23.075Z,58.70
2018-04-30T06:22:50.809Z,58.50
2018-04-30T06:25:18.423Z,58.53
2018-04-30T06:27:46.058Z,58.30
2018-04-30T06:30:13.662Z,58.50
2018-04-30T06:32:41.363Z,58.24
2018-04-30T06:35:08.999Z,58.28
2018-04-30T06:37:36.638Z,57.87
2018-04-30T06:40:04.456Z,57.75
2018-04-30T06:42:32.121Z,57.95
2018-04-30T06:44:59.759Z,57.84
2018-04-30T06:47:27.444Z,57.86
2018-04-30T06:49:55.104Z,57.72
2018-04-30T06:52:22.734Z,57.92
2018-04-30T06:54:50.430Z,57.95
2018-04-30T06:57:18.090Z,57.98
2018-04-30T06:59:45.764Z,57.81
2018-04-30T07:02:13.370Z,57.49
2018-04-30T07:04:41.072Z,57.37
2018-04-30T07:07:08.738Z,57.33
2018-04-30T07:09:36.461Z,57.39
2018-04-30T07:12:04.163Z,57.57
2018-04-30T07:14:31.836Z,57.33
2018-04-30T07:16:59.446Z,57.23
2018-04-30T07:19:27.150Z,56.91
2018-04-30T07:21:54.824Z,56.75
2018-04-30T07:24:22.467Z,56.85
2018-04-30T07:26:50.090Z,56.83
2018-04-30T07:29:17.715Z,57.15
2018-04-30T07:31:45.327Z,56.88
2018-04-30T07:34:13.031Z,56.68
2018-04-30T07:36:40.690Z,56.70
2018-04-30T07:39:08.367Z,56.61
2018-04-30T07:41:35.963Z,56.84
2018-04-30T07:44:03.678Z,56.57
2018-04-30T07:46:31.286Z,56.35
2018-04-30T07:48:58.914Z,56.03
2018-04-30T07:51:26.518Z,55.60
2018-04-30T07:53:54.226Z,55.35
2018-04-30T07:56:21.830Z,55.17
2018-04-30T07:58:49.462Z,55.04
2018-04-30T08:01:17.067Z,54.42
2018-04-30T08:03:44.693Z,54.14
2018-04-30T08:06:12.302Z,54.29
2018-04-30T08:08:39.947Z,53.88
2018-04-30T08:11:07.664Z,54.23
2018-04-30T08:13:35.296Z,53.76
2018-04-30T08:16:02.986Z,53.89
2018-04-30T08:18:30.618Z,54.08
2018-04-30T08:20:58.239Z,53.61
2018-04-30T08:23:25.870Z,53.08
2018-04-30T08:25:53.502Z,52.47
2018-04-30T08:28:21.203Z,52.05
2018-04-30T08:30:48.858Z,52.26
2018-04-30T08:33:16.469Z,52.37
2018-04-30T08:35:44.109Z,51.98
2018-04-30T08:38:11.753Z,51.76
2018-04-30T08:40:39.387Z,51.42
2018-04-30T08:43:07.002Z,51.42
2018-04-30T08:45:34.639Z,51.87
2018-04-30T08:48:02.246Z,51.52
2018-04-30T08:50:29.873Z,50.63
2018-04-30T08:52:57.484Z,50.36
2018-04-30T08:55:25.114Z,50.32
2018-04-30T08:57:52.750Z,50.33
2018-04-30T09:00:20.455Z,50.18
2018-04-30T09:02:48.032Z,50.41
2018-04-30T09:05:15.722Z,50.39
2018-04-30T09:07:43.330Z,50.68
2018-04-30T09:10:10.958Z,50.35
2018-04-30T09:12:38.615Z,50.64
2018-04-30T09:15:06.271Z,50.44
2018-04-30T09:17:33.932Z,50.69
2018-04-30T09:20:01.603Z,51.02
2018-04-30T09:22:29.228Z,51.08
2018-04-30T09:24:56.864Z,50.96
2018-04-30T09:27:24.582Z,50.93
2018-04-30T09:29:52.228Z,50.97
2018-04-30T09:32:19.842Z,51.36
2018-04-30T09:34:47.574Z,50.95
2018-04-30T09:37:15.242Z,50.61
2018-04-30T09:39:42.884Z,50.57
2018-04-30T09:42:10.558Z,50.03
2018-04-30T09:44:38.195Z,49.75
2018-04-30T09:47:05.891Z,49.33
2018-04-30T09:49:33.536Z,49.57
2018-04-30T09:52:01.147Z,49.42
2018-04-30T09:54:28.774Z,49.26
2018-04-30T09:56:56.436Z,48.79
2018-04-30T09:59:24.070Z,48.64
2018-04-30T10:01:51.683Z,48.57
2018-04-30T10:04:19.299Z,48.81
2018-04-30T10:06:46.958Z,48.60
2018-04-30T10:09:14.574Z,48.45
2018-04-30T10:11:42.310Z,48.34
2018-04-30T10:14:09.927Z,48.14
2018-04-30T10:16:37.563Z,48.37
2018-04-30T10:19:05.199Z,48.10
2018-04-30T10:21:32.835Z,48.57
2018-04-30T10:24:00.526Z,48.00
2018-04-30T10:26:28.168Z,47.76
2018-04-30T10:28:55.783Z,47.44
2018-04-30T10:31:23.506Z,47.06
2018-04-30T10:33:51.121Z,46.49
2018-04-30T10:36:18.787Z,46.03
2018-04-30T10:38:46.494Z,45.48
2018-04-30T10:41:14.135Z,45.31
2018-04-30T10:43:41.746Z,45.79
2018-04-30T10:46:09.495Z,45.23
2018-04-30T10:48:37.038Z,45.24
2018-04-30T10:51:04.675Z,45.08
2018-04-30T10:53:32.283Z,44.57
2018-04-30T10:55:59.926Z,44.47
2018-04-30T10:58:27.591Z,44.69
2018-04-30T11:00:55.255Z,44.95
2018-04-30T11:03:22.866Z,44.15
2018-04-30T11:05:50.503Z,44.17
2018-04-30T11:08:18.115Z,43.60
2018-04-30T11:10:45.801Z,42.85
2018-04-30T11:13:13.406Z,42.43
2018-04-30T11:15:41.038Z,42.48
2018-04-30T11:18:08.643Z,41.76
2018-04-30T11:20:36.288Z,41.16
2018-04-30T11:23:03.907Z,41.29
2018-04-30T11:25:31.543Z,41.69
2018-04-30T11:27:59.164Z,41.35
2018-04-30T11:30:26.790Z,41.39
2018-04-30T11:32:54.452Z,41.52
2018-04-30T11:35:22.098Z,41.63
2018-04-30T11:37:49.782Z,41.88
2018-04-30T11:40:17.550Z,41.74
2018-04-30T11:42:45.208Z,41.80
2018-04-30T11:45:12.841Z,41.90
2018-04-30T11:47:40.539Z,42.01
2018-04-30T11:50:08.171Z,41.90
2018-04-30T11:52:35.854Z,42.06
2018-04-30T11:55:03.466Z,42.41
2018-04-30T11:57:31.115Z,42.83
2018-04-30T11:59:58.744Z,43.32
2018-04-30T12:02:26.443Z,43.64
2018-04-30T12:04:54.115Z,43.76
2018-04-30T12:07:21.703Z,43.69
2018-04-30T12:09:49.362Z,43.89
2018-04-30T12:12:17.027Z,43.73
2018-04-30T12:14:44.659Z,44.03
2018-04-30T12:17:12.303Z,43.38
2018-04-30T12:19:39.931Z,44.10
2018-04-30T12:22:07.625Z,44.88
2018-04-30T12:24:35.214Z,45.20
2018-04-30T12:27:02.856Z,44.95
2018-04-30T12:29:30.471Z,45.51
2018-04-30T12:31:58.110Z,46.16
2018-04-30T12:34:25.746Z,47.81
2018-04-30T12:36:53.478Z,50.07
2018-04-30T12:39:21.124Z,52.17
2018-04-30T12:41:48.813Z,53.80
2018-04-30T12:44:16.434Z,55.92
2018-04-30T12:46:44.139Z,56.36
2018-04-30T12:49:11.764Z,57.38
2018-04-30T12:51:39.406Z,57.78
2018-04-30T12:54:07.074Z,57.86
2018-04-30T12:56:34.735Z,59.10
2018-04-30T12:59:02.364Z,59.99
2018-04-30T13:01:30.023Z,60.65
2018-04-30T13:03:57.656Z,61.37
2018-04-30T13:06:25.298Z,61.26
2018-04-30T13:08:52.987Z,61.00
2018-04-30T13:11:20.631Z,61.52
2018-04-30T13:13:48.318Z,61.44
2018-04-30T13:16:16.088Z,59.24
2018-04-30T13:18:43.748Z,58.32
2018-04-30T13:21:11.407Z,58.13
2018-04-30T13:23:39.062Z,58.15
2018-04-30T13:26:06.691Z,58.45
2018-04-30T13:28:34.404Z,58.69
2018-04-30T13:31:02.050Z,58.68
2018-04-30T13:33:29.709Z,59.02
2018-04-30T13:36:01.171Z,59.77
2018-04-30T13:38:28.801Z,60.01
2018-04-30T13:40:56.432Z,60.11
2018-04-30T13:43:24.059Z,59.19
2018-04-30T13:45:51.668Z,57.68
2018-04-30T13:48:19.382Z,57.85
2018-04-30T13:50:47.048Z,58.00
2018-04-30T13:53:14.683Z,57.26
2018-04-30T13:55:42.290Z,57.46
2018-04-30T13:58:10.032Z,57.63
2018-04-30T14:00:37.635Z,58.10
2018-04-30T14:03:05.986Z,58.88
2018-04-30T14:05:33.603Z,59.47
2018-04-30T14:08:01.292Z,59.66
2018-04-30T14:10:28.953Z,59.63
2018-04-30T14:12:56.621Z,59.59
2018-04-30T14:15:24.297Z,59.37
2018-04-30T14:17:51.930Z,58.84
2018-04-30T14:20:19.530Z,58.53
2018-04-30T14:22:47.271Z,58.60
2018-04-30T14:25:14.885Z,58.76
2018-04-30T14:27:42.519Z,58.56
2018-04-30T14:30:10.132Z,57.61
2018-04-30T14:32:37.755Z,57.53
2018-04-30T14:35:05.357Z,57.53
2018-04-30T14:37:32.987Z,57.24
2018-04-30T14:40:00.698Z,57.50
2018-04-30T14:42:28.362Z,57.50
2018-04-30T14:44:55.971Z,57.23
2018-04-30T14:47:23.691Z,57.07
2018-04-30T14:49:51.346Z,57.79
2018-04-30T14:52:19.011Z,58.05
2018-04-30T14:54:46.887Z,58.49
2018-04-30T14:57:14.548Z,58.80
2018-04-30T14:59:42.203Z,58.49
2018-04-30T15:02:09.833Z,58.07
2018-04-30T15:04:37.495Z,58.04
2018-04-30T15:07:05.118Z,58.19
2018-04-30T15:09:32.723Z,58.51
2018-04-30T15:12:00.414Z,58.30
2018-04-30T15:14:28.038Z,58.18
2018-04-30T15:16:55.646Z,58.66
2018-04-30T15:19:23.295Z,58.58
2018-04-30T15:21:50.958Z,58.46
2018-04-30T15:24:18.628Z,58.24
2018-04-30T15:26:46.281Z,58.66
2018-04-30T15:29:13.942Z,58.67
2018-04-30T15:31:41.556Z,59.08
2018-04-30T15:34:09.185Z,59.20
2018-04-30T15:36:36.795Z,59.20
2018-04-30T15:39:04.426Z,59.34
2018-04-30T15:41:32.044Z,59.43
2018-04-30T15:43:59.682Z,59.55
2018-04-30T15:46:27.282Z,59.68
2018-04-30T15:48:54.910Z,59.57
2018-04-30T15:51:22.510Z,59.43
2018-04-30T15:53:50.158Z,58.69
2018-04-30T15:56:17.761Z,57.81
2018-04-30T15:58:45.485Z,56.90
2018-04-30T16:01:13.159Z,56.33
2018-04-30T16:03:40.810Z,55.84
2018-04-30T16:06:08.410Z,55.87
2018-04-30T16:08:36.052Z,56.08
2018-04-30T16:11:03.703Z,55.92
2018-04-30T16:13:31.335Z,56.36
2018-04-30T16:15:58.942Z,56.66
2018-04-30T16:18:26.682Z,56.60
2018-04-30T16:20:54.292Z,56.21
2018-04-30T16:23:21.928Z,55.40
2018-04-30T16:25:49.534Z,54.63
2018-04-30T16:28:17.163Z,54.23
2018-04-30T16:30:44.766Z,52.50
2018-04-30T16:33:12.392Z,51.83
2018-04-30T16:35:39.995Z,52.09
2018-04-30T16:38:07.858Z,52.07
2018-04-30T16:40:35.466Z,51.87
2018-04-30T16:43:03.090Z,51.99
2018-04-30T16:45:30.766Z,51.83
2018-04-30T16:47:58.403Z,51.88
2018-04-30T16:50:26.006Z,52.14
2018-04-30T16:52:53.660Z,52.02
2018-04-30T16:55:21.316Z,52.04
2018-04-30T16:57:48.988Z,52.34
2018-04-30T17:00:16.651Z,52.17
2018-04-30T17:02:44.259Z,51.08
2018-04-30T17:05:11.971Z,50.90
2018-04-30T17:07:39.574Z,50.56
2018-04-30T17:10:07.208Z,49.08
2018-04-30T17:12:34.815Z,48.18
2018-04-30T17:15:02.520Z,47.82
2018-04-30T17:17:30.183Z,47.36
2018-04-30T17:19:57.791Z,47.03
2018-04-30T17:22:25.429Z,46.80
2018-04-30T17:24:53.056Z,46.75
2018-04-30T17:27:20.722Z,46.34
2018-04-30T17:29:48.360Z,46.23
2018-04-30T17:32:15.966Z,46.21
2018-04-30T17:34:43.715Z,46.08
2018-04-30T17:37:11.431Z,46.00
2018-04-30T17:39:39.070Z,46.12
2018-04-30T17:42:06.704Z,46.50
2018-04-30T17:44:34.343Z,46.76
2018-04-30T17:47:02.089Z,47.09
2018-04-30T17:49:29.674Z,47.13
2018-04-30T17:51:57.350Z,47.21
2018-04-30T17:54:24.975Z,47.46
2018-04-30T17:56:52.585Z,47.62
2018-04-30T17:59:20.234Z,47.85
2018-04-30T18:01:47.839Z,47.80
2018-04-30T18:04:15.553Z,47.49
2018-04-30T18:06:43.292Z,47.30
2018-04-30T18:09:10.896Z,47.39
2018-04-30T18:11:38.498Z,47.18
2018-04-30T18:14:06.129Z,47.16
2018-04-30T18:16:33.770Z,47.14
2018-04-30T18:19:01.411Z,46.75
2018-04-30T18:21:29.028Z,46.42
2018-04-30T18:23:56.655Z,46.35
2018-04-30T18:26:24.323Z,46.34
2018-04-30T18:28:51.950Z,46.01
2018-04-30T18:31:19.559Z,45.80
2018-04-30T18:33:47.188Z,46.10
2018-04-30T18:36:14.867Z,46.23
2018-04-30T18:38:42.691Z,46.52
2018-04-30T18:41:10.274Z,46.89
2018-04-30T18:43:37.884Z,47.28
2018-04-30T18:46:05.510Z,47.71
2018-04-30T18:48:33.111Z,48.17
2018-04-30T18:51:00.835Z,48.64
2018-04-30T18:53:28.438Z,48.99
2018-04-30T18:55:56.163Z,49.50
2018-04-30T18:58:23.770Z,50.00
2018-04-30T19:00:51.399Z,50.35
2018-04-30T19:03:19.042Z,50.63
2018-04-30T19:05:46.768Z,50.70
2018-04-30T19:08:14.471Z,51.02
2018-04-30T19:10:42.108Z,51.07
2018-04-30T19:13:09.727Z,51.27
2018-04-30T19:15:37.363Z,51.67
2018-04-30T19:18:04.970Z,51.67
2018-04-30T19:20:32.606Z,52.02
2018-04-30T19:23:00.986Z,52.13
2018-04-30T19:25:28.723Z,52.23
2018-04-30T19:27:56.327Z,52.44
2018-04-30T19:30:24.056Z,52.67
2018-04-30T19:32:51.658Z,52.82
2018-04-30T19:35:19.382Z,52.85
2018-04-30T19:37:47.048Z,53.03
2018-04-30T19:40:14.710Z,53.21
2018-04-30T19:42:42.325Z,53.44
2018-04-30T19:45:10.027Z,53.78
2018-04-30T19:47:37.696Z,54.11
2018-04-30T19:50:05.346Z,54.23
2018-04-30T19:52:32.950Z,54.34
2018-04-30T19:55:00.679Z,54.40
2018-04-30T19:57:28.291Z,54.28
2018-04-30T19:59:55.926Z,54.24
2018-04-30T20:02:23.529Z,54.08
2018-04-30T20:04:51.206Z,53.94
2018-04-30T20:07:18.882Z,53.75
2018-04-30T20:09:46.490Z,53.77
2018-04-30T20:12:14.217Z,53.68
2018-04-30T20:14:41.817Z,53.69
2018-04-30T20:17:09.462Z,53.89
2018-04-30T20:19:37.072Z,54.03
2018-04-30T20:22:04.703Z,54.11
2018-04-30T20:24:32.422Z,54.27
2018-04-30T20:27:00.115Z,54.44
2018-04-30T20:29:27.719Z,54.55
2018-04-30T20:31:55.342Z,54.72
2018-04-30T20:34:22.967Z,54.86
2018-04-30T20:36:50.636Z,55.00
2018-04-30T20:39:18.247Z,55.36
2018-04-30T20:41:45.873Z,55.79
2018-04-30T20:44:13.484Z,56.18
2018-04-30T20:46:41.193Z,56.43
2018-04-30T20:49:08.802Z,56.51
2018-04-30T20:51:36.426Z,56.77
2018-04-30T20:54:04.031Z,57.13
2018-04-30T20:56:31.658Z,57.23
2018-04-30T20:58:59.266Z,57.38
2018-04-30T21:01:26.947Z,57.57
2018-04-30T21:03:54.560Z,57.82
2018-04-30T21:06:22.271Z,57.94
2018-04-30T21:09:01.727Z,58.08
2018-04-30T21:11:29.362Z,58.04
2018-04-30T21:13:57.034Z,58.20
2018-04-30T21:16:24.798Z,58.28
2018-04-30T21:18:52.439Z,58.29
2018-04-30T21:21:20.051Z,58.39
2018-04-30T21:23:47.688Z,58.42
2018-04-30T21:26:15.871Z,58.39
2018-04-30T21:28:43.498Z,58.47
2018-04-30T21:31:11.186Z,58.51
2018-04-30T21:33:38.814Z,58.65
2018-04-30T21:36:06.419Z,58.66
2018-04-30T21:38:34.070Z,58.60
2018-04-30T21:41:01.748Z,58.63
2018-04-30T21:43:29.397Z,58.71
2018-04-30T21:45:57.008Z,58.76
2018-04-30T21:48:24.729Z,58.80
2018-04-30T21:50:52.352Z,58.92
2018-04-30T21:53:19.983Z,59.13
2018-04-30T21:55:47.596Z,59.29
2018-04-30T21:58:15.266Z,59.31
2018-04-30T22:00:42.871Z,59.36
2018-04-30T22:03:10.520Z,59.38
2018-04-30T22:05:38.144Z,59.44
2018-04-30T22:08:05.783Z,59.54
2018-04-30T22:10:33.394Z,59.52
2018-04-30T22:13:01.018Z,59.50
2018-04-30T22:15:28.628Z,59.57
2018-04-30T22:17:56.372Z,59.45
2018-04-30T22:20:24.026Z,59.33
2018-04-30T22:22:51.695Z,59.18
2018-04-30T22:25:19.359Z,59.26
2018-04-30T22:27:46.986Z,59.49
2018-04-30T22:30:14.674Z,59.49
2018-04-30T22:32:42.274Z,59.59
2018-04-30T22:35:09.997Z,59.80
2018-04-30T22:37:37.598Z,60.09
2018-04-30T22:40:05.223Z,60.31
2018-04-30T22:42:32.826Z,60.55
2018-04-30T22:45:00.459Z,60.67
2018-04-30T22:47:28.108Z,60.71
2018-04-30T22:49:55.771Z,60.71
2018-04-30T22:52:23.375Z,60.60
2018-04-30T22:54:51.008Z,60.80
2018-04-30T22:57:18.616Z,60.97
2018-04-30T22:59:46.242Z,60.90
2018-04-30T23:02:13.842Z,60.90
2018-04-30T23:04:41.470Z,60.84
2018-04-30T23:07:09.112Z,60.85
2018-04-30T23:09:36.771Z,60.69
2018-04-30T23:12:04.375Z,60.68
2018-04-30T23:14:32.002Z,60.53
2018-04-30T23:16:59.655Z,60.48
2018-04-30T23:19:27.283Z,60.41
2018-04-30T23:21:54.886Z,60.34
2018-04-30T23:24:22.510Z,60.34
2018-04-30T23:26:50.122Z,60.20
2018-04-30T23:29:17.844Z,60.05
2018-04-30T23:31:45.522Z,59.88
2018-04-30T23:34:13.186Z,59.90
2018-04-30T23:36:40.799Z,59.82
2018-04-30T23:39:08.425Z,59.82
2018-04-30T23:41:36.030Z,59.75
2018-04-30T23:44:03.674Z,59.72
2018-04-30T23:46:31.298Z,59.62
2018-04-30T23:48:58.953Z,59.56
2018-04-30T23:51:26.583Z,59.50
2018-04-30T23:53:54.186Z,59.51
2018-04-30T23:56:21.847Z,59.39
2018-04-30T23:58:49.450Z,59.43
